createdAt,value
2023-04-01T00:01:17.609Z,82.09
2023-04-01T00:03:47.274Z,81.94
2023-04-01T00:06:16.994Z,81.96
2023-04-01T00:08:45.873Z,81.59
2023-04-01T00:11:14.636Z,81.10
2023-04-01T00:13:43.775Z,80.88
2023-04-01T00:16:20.984Z,80.93
2023-04-01T00:18:51.274Z,80.94
2023-04-01T00:21:19.448Z,81.21
2023-04-01T00:23:52.682Z,80.78
2023-04-01T00:26:23.011Z,80.44
2023-04-01T00:28:51.260Z,80.48
2023-04-01T00:31:19.635Z,81.06
2023-04-01T00:33:47.638Z,80.57
2023-04-01T00:36:18.292Z,80.24
2023-04-01T00:38:48.013Z,80.33
2023-04-01T00:41:17.042Z,80.49
2023-04-01T00:43:48.098Z,80.05
2023-04-01T00:46:17.302Z,79.71
2023-04-01T00:48:53.537Z,79.76
2023-04-01T00:51:24.709Z,79.92
2023-04-01T00:53:55.192Z,79.49
2023-04-01T00:56:51.737Z,79.33
2023-04-01T00:59:28.205Z,79.82
2023-04-01T01:01:56.585Z,79.44
2023-04-01T01:04:33.262Z,79.23
2023-04-01T01:07:01.829Z,79.63
2023-04-01T01:09:48.285Z,79.52
2023-04-01T01:12:34.125Z,79.37
2023-04-01T01:15:23.789Z,79.70
2023-04-01T01:18:05.306Z,79.80
2023-04-01T01:20:42.471Z,79.34
2023-04-01T01:23:23.070Z,79.31
2023-04-01T01:25:51.958Z,79.73
2023-04-01T01:28:42.380Z,79.70
2023-04-01T01:31:14.114Z,79.28
2023-04-01T01:34:16.727Z,79.17
2023-04-01T01:36:46.171Z,79.56
2023-04-01T01:39:14.288Z,79.95
2023-04-01T01:41:42.749Z,79.54
2023-04-01T01:44:11.487Z,79.46
2023-04-01T01:46:40.581Z,79.54
2023-04-01T01:49:08.687Z,79.85
2023-04-01T01:51:37.445Z,79.62
2023-04-01T01:54:07.206Z,79.19
2023-04-01T01:56:36.291Z,79.27
2023-04-01T01:59:05.793Z,79.64
2023-04-01T02:01:39.383Z,79.33
2023-04-01T02:06:56.953Z,81.10
2023-04-01T02:09:25.446Z,80.46
2023-04-01T02:11:56.899Z,79.96
2023-04-01T02:14:37.314Z,79.66
2023-04-01T02:17:16.795Z,79.58
2023-04-01T02:19:54.131Z,79.41
2023-04-01T02:22:25.134Z,79.47
2023-04-01T02:25:00.878Z,79.72
2023-04-01T02:27:30.984Z,80.02
2023-04-01T02:29:59.188Z,79.51
2023-04-01T02:32:28.846Z,79.30
2023-04-01T02:34:56.936Z,79.55
2023-04-01T02:37:25.097Z,79.92
2023-04-01T02:39:53.751Z,79.63
2023-04-01T02:42:21.969Z,79.48
2023-04-01T02:44:50.847Z,79.53
2023-04-01T02:47:18.839Z,80.02
2023-04-01T02:49:47.748Z,79.67
2023-04-01T02:52:15.655Z,79.44
2023-04-01T02:54:45.562Z,79.34
2023-04-01T02:57:13.703Z,79.05
2023-04-01T02:59:42.806Z,79.64
2023-04-01T03:02:10.839Z,79.48
2023-04-01T03:04:39.254Z,79.31
2023-04-01T03:07:07.726Z,79.07
2023-04-01T03:09:37.210Z,79.29
2023-04-01T03:12:05.372Z,79.23
2023-04-01T03:14:36.318Z,79.24
2023-04-01T03:17:04.350Z,79.65
2023-04-01T03:19:32.390Z,79.44
2023-04-01T03:22:00.954Z,79.09
2023-04-01T03:24:29.468Z,79.19
2023-04-01T03:26:58.156Z,79.70
2023-04-01T03:29:26.044Z,79.52
2023-04-01T03:31:54.166Z,79.28
2023-04-01T03:34:22.430Z,79.56
2023-04-01T03:36:50.604Z,79.91
2023-04-01T03:39:22.984Z,79.55
2023-04-01T03:41:51.072Z,79.39
2023-04-01T03:44:19.127Z,79.30
2023-04-01T03:46:48.441Z,79.32
2023-04-01T03:49:16.778Z,79.93
2023-04-01T03:51:44.847Z,79.72
2023-04-01T03:54:12.889Z,79.72
2023-04-01T03:56:41.075Z,80.11
2023-04-01T03:59:12.638Z,79.80
2023-04-01T04:01:41.059Z,79.79
2023-04-01T04:04:13.938Z,79.62
2023-04-01T04:06:42.566Z,80.23
2023-04-01T04:09:10.772Z,79.96
2023-04-01T04:11:38.718Z,79.53
2023-04-01T04:14:06.703Z,79.71
2023-04-01T04:16:37.608Z,79.79
2023-04-01T04:19:06.313Z,79.44
2023-04-01T04:21:36.077Z,79.02
2023-04-01T04:24:04.875Z,79.43
2023-04-01T04:26:49.909Z,79.29
2023-04-01T04:29:17.861Z,78.78
2023-04-01T04:31:46.712Z,78.63
2023-04-01T04:34:14.906Z,78.90
2023-04-01T04:36:43.904Z,79.20
2023-04-01T04:39:12.329Z,78.84
2023-04-01T04:41:41.715Z,78.71
2023-04-01T04:44:12.100Z,78.87
2023-04-01T04:46:42.775Z,78.57
2023-04-01T04:49:14.121Z,78.54
2023-04-01T04:51:42.179Z,78.59
2023-04-01T04:54:10.118Z,78.25
2023-04-01T04:57:11.638Z,77.75
2023-04-01T04:59:45.664Z,77.74
2023-04-01T05:02:19.839Z,77.01
2023-04-01T05:04:49.328Z,76.43
2023-04-01T05:07:17.345Z,76.55
2023-04-01T05:09:48.525Z,76.56
2023-04-01T05:12:16.628Z,76.37
2023-04-01T05:15:01.954Z,76.51
2023-04-01T05:17:35.328Z,76.67
2023-04-01T05:20:06.044Z,76.01
2023-04-01T05:22:34.108Z,75.79
2023-04-01T05:25:03.616Z,75.96
2023-04-01T05:27:32.700Z,75.51
2023-04-01T05:30:03.339Z,74.77
2023-04-01T05:32:42.637Z,74.95
2023-04-01T05:35:11.711Z,75.04
2023-04-01T05:37:39.652Z,74.76
2023-04-01T05:40:08.995Z,74.80
2023-04-01T05:42:38.121Z,75.20
2023-04-01T05:45:08.064Z,74.79
2023-04-01T05:47:55.511Z,74.41
2023-04-01T05:50:23.855Z,74.92
2023-04-01T05:52:52.096Z,74.79
2023-04-01T05:55:20.627Z,74.29
2023-04-01T05:57:50.548Z,74.65
2023-04-01T06:00:20.326Z,74.76
2023-04-01T06:02:49.347Z,73.99
2023-04-01T06:05:22.559Z,73.98
2023-04-01T06:07:52.892Z,74.40
2023-04-01T06:10:22.272Z,74.11
2023-04-01T06:13:00.344Z,73.68
2023-04-01T06:15:40.469Z,73.93
2023-04-01T06:18:16.705Z,73.79
2023-04-01T06:21:40.684Z,73.56
2023-04-01T06:24:29.172Z,74.05
2023-04-01T06:27:25.033Z,74.17
2023-04-01T06:30:12.332Z,73.64
2023-04-01T06:33:10.971Z,73.54
2023-04-01T06:35:42.465Z,73.71
2023-04-01T06:38:37.706Z,73.13
2023-04-01T06:41:24.792Z,72.83
2023-04-01T06:44:20.459Z,72.89
2023-04-01T06:47:45.335Z,72.99
2023-04-01T06:51:21.110Z,72.26
2023-04-01T06:54:48.777Z,72.38
2023-04-01T06:57:50.414Z,70.72
2023-04-01T07:00:39.164Z,69.70
2023-04-01T07:03:15.928Z,69.60
2023-04-01T07:05:45.106Z,68.49
2023-04-01T07:08:27.907Z,67.68
2023-04-01T07:11:10.340Z,67.90
2023-04-01T07:13:55.750Z,67.62
2023-04-01T07:16:28.353Z,66.49
2023-04-01T07:19:15.318Z,66.32
2023-04-01T07:22:03.104Z,65.97
2023-04-01T07:24:41.961Z,65.62
2023-04-01T07:27:17.849Z,65.46
2023-04-01T07:29:47.129Z,65.84
2023-04-01T07:32:45.560Z,65.73
2023-04-01T07:35:29.659Z,65.54
2023-04-01T07:38:19.459Z,65.53
2023-04-01T07:41:04.555Z,65.69
2023-04-01T07:43:46.294Z,65.38
2023-04-01T07:46:40.485Z,64.73
2023-04-01T07:49:15.446Z,64.33
2023-04-01T07:51:44.923Z,64.47
2023-04-01T07:54:32.517Z,64.11
2023-04-01T07:57:07.818Z,63.57
2023-04-01T08:00:10.524Z,63.16
2023-04-01T08:03:04.714Z,62.57
2023-04-01T08:05:47.132Z,61.90
2023-04-01T08:08:24.626Z,62.02
2023-04-01T08:11:54.523Z,61.83
2023-04-01T08:15:29.188Z,62.29
2023-04-01T08:18:28.822Z,62.49
2023-04-01T08:21:00.075Z,62.52
2023-04-01T08:23:34.592Z,62.21
2023-04-01T08:26:17.878Z,62.23
2023-04-01T08:28:53.428Z,62.06
2023-04-01T08:31:58.158Z,61.63
2023-04-01T08:34:38.643Z,61.18
2023-04-01T08:37:18.797Z,61.59
2023-04-01T08:39:49.403Z,62.09
2023-04-01T08:42:28.963Z,62.04
2023-04-01T08:45:38.569Z,61.69
2023-04-01T08:48:14.052Z,61.85
2023-04-01T08:51:14.979Z,61.74
2023-04-01T08:53:49.197Z,61.69
2023-04-01T08:56:41.387Z,61.43
2023-04-01T08:59:39.075Z,61.12
2023-04-01T09:02:43.313Z,61.02
2023-04-01T09:05:43.407Z,61.12
2023-04-01T09:08:50.324Z,61.16
2023-04-01T09:11:30.140Z,60.13
2023-04-01T09:14:28.033Z,59.58
2023-04-01T09:17:36.378Z,58.74
2023-04-01T09:20:32.626Z,58.24
2023-04-01T09:23:21.831Z,57.60
2023-04-01T09:26:08.639Z,57.24
2023-04-01T09:28:59.518Z,56.36
2023-04-01T09:31:59.301Z,55.57
2023-04-01T09:34:44.297Z,55.53
2023-04-01T09:37:25.849Z,55.74
2023-04-01T09:40:35.885Z,55.66
2023-04-01T09:43:26.396Z,55.57
2023-04-01T09:46:26.068Z,55.09
2023-04-01T09:49:22.192Z,54.90
2023-04-01T09:52:15.914Z,54.44
2023-04-01T09:55:15.505Z,54.24
2023-04-01T09:58:02.115Z,53.80
2023-04-01T10:01:26.849Z,53.14
2023-04-01T10:04:32.646Z,53.13
2023-04-01T10:07:20.374Z,52.65
2023-04-01T10:10:18.239Z,53.03
2023-04-01T10:13:10.279Z,53.27
2023-04-01T10:16:01.316Z,53.19
2023-04-01T10:18:29.630Z,52.84
2023-04-01T10:21:32.445Z,52.64
2023-04-01T10:24:51.955Z,52.71
2023-04-01T10:27:43.560Z,52.89
2023-04-01T10:30:34.314Z,52.52
2023-04-01T10:33:26.308Z,52.55
2023-04-01T10:36:19.446Z,52.18
2023-04-01T10:39:00.280Z,51.68
2023-04-01T10:41:34.398Z,51.57
2023-04-01T10:44:46.764Z,50.54
2023-04-01T10:47:21.199Z,50.25
2023-04-01T10:49:58.274Z,49.21
2023-04-01T10:52:40.049Z,48.84
2023-04-01T10:55:36.927Z,48.78
2023-04-01T10:58:57.368Z,48.98
2023-04-01T11:02:16.983Z,49.03
2023-04-01T11:05:46.115Z,48.72
2023-04-01T11:08:46.905Z,48.70
2023-04-01T11:11:53.066Z,48.27
2023-04-01T11:14:41.194Z,47.71
2023-04-01T11:17:48.489Z,47.76
2023-04-01T11:20:28.896Z,47.46
2023-04-01T11:23:07.023Z,47.75
2023-04-01T11:25:44.339Z,48.21
2023-04-01T11:28:37.246Z,48.93
2023-04-01T11:31:12.752Z,49.57
2023-04-01T11:33:44.124Z,49.78
2023-04-01T11:36:34.941Z,49.91
2023-04-01T11:39:23.033Z,49.77
2023-04-01T11:42:18.526Z,49.67
2023-04-01T11:45:39.549Z,49.82
2023-04-01T11:48:16.488Z,49.79
2023-04-01T11:51:03.383Z,49.86
2023-04-01T11:53:46.222Z,49.84
2023-04-01T11:56:33.444Z,49.73
2023-04-01T11:59:25.492Z,49.48
2023-04-01T12:02:31.697Z,49.58
2023-04-01T12:05:03.766Z,49.45
2023-04-01T12:08:04.278Z,49.48
2023-04-01T12:10:45.942Z,49.66
2023-04-01T12:13:29.442Z,49.75
2023-04-01T12:16:06.127Z,49.69
2023-04-01T12:19:18.976Z,49.71
2023-04-01T12:21:53.406Z,49.17
2023-04-01T12:24:50.970Z,49.10
2023-04-01T12:27:33.344Z,49.27
2023-04-01T12:30:07.500Z,48.95
2023-04-01T12:32:37.111Z,48.47
2023-04-01T12:35:07.299Z,48.25
2023-04-01T12:37:37.406Z,48.41
2023-04-01T12:40:20.884Z,48.76
2023-04-01T12:43:27.213Z,49.17
2023-04-01T12:46:16.457Z,49.28
2023-04-01T12:48:57.993Z,49.56
2023-04-01T12:51:41.529Z,49.43
2023-04-01T12:54:24.877Z,48.91
2023-04-01T12:57:14.956Z,48.92
2023-04-01T12:59:52.296Z,48.18
2023-04-01T13:02:52.140Z,47.36
2023-04-01T13:05:53.162Z,47.26
2023-04-01T13:08:32.163Z,47.02
2023-04-01T13:11:09.188Z,46.70
2023-04-01T13:13:46.667Z,47.03
2023-04-01T13:16:26.871Z,47.34
2023-04-01T13:19:09.702Z,47.47
2023-04-01T13:22:04.361Z,47.39
2023-04-01T13:24:47.397Z,47.65
2023-04-01T13:27:27.646Z,47.61
2023-04-01T13:29:56.045Z,47.51
2023-04-01T13:32:59.938Z,47.01
2023-04-01T13:36:06.168Z,46.96
2023-04-01T13:39:13.329Z,47.01
2023-04-01T13:42:23.341Z,47.10
2023-04-01T13:44:54.318Z,47.24
2023-04-01T13:47:57.942Z,47.41
2023-04-01T13:50:44.975Z,47.31
2023-04-01T13:53:51.951Z,47.32
2023-04-01T13:56:41.667Z,47.15
2023-04-01T13:59:21.864Z,46.94
2023-04-01T14:02:12.323Z,47.01
2023-04-01T14:05:02.541Z,47.23
2023-04-01T14:07:55.459Z,47.75
2023-04-01T14:11:08.713Z,48.30
2023-04-01T14:13:56.693Z,48.81
2023-04-01T14:16:44.923Z,48.97
2023-04-01T14:19:12.728Z,49.15
2023-04-01T14:25:14.418Z,50.62
2023-04-01T14:28:00.938Z,49.97
2023-04-01T14:30:52.447Z,50.10
2023-04-01T14:33:39.638Z,49.84
2023-04-01T14:36:54.070Z,49.12
2023-04-01T14:39:26.826Z,48.33
2023-04-01T14:42:11.845Z,48.19
2023-04-01T14:45:10.887Z,48.40
2023-04-01T14:47:47.612Z,48.69
2023-04-01T14:50:24.536Z,49.06
2023-04-01T14:53:07.718Z,49.36
2023-04-01T14:55:43.552Z,49.58
2023-04-01T14:58:14.870Z,49.86
2023-04-01T15:01:11.383Z,50.24
2023-04-01T15:03:58.365Z,50.59
2023-04-01T15:06:44.165Z,50.87
2023-04-01T15:09:17.173Z,50.92
2023-04-01T15:12:25.488Z,51.20
2023-04-01T15:15:10.895Z,51.53
2023-04-01T15:17:48.814Z,51.76
2023-04-01T15:20:36.111Z,51.92
2023-04-01T15:23:21.262Z,52.01
2023-04-01T15:26:10.567Z,52.28
2023-04-01T15:28:54.040Z,52.81
2023-04-01T15:31:28.950Z,53.35
2023-04-01T15:34:50.325Z,53.91
2023-04-01T15:37:23.087Z,54.22
2023-04-01T15:39:56.038Z,55.14
2023-04-01T15:42:35.195Z,55.66
2023-04-01T15:45:18.320Z,56.27
2023-04-01T15:48:15.898Z,56.77
2023-04-01T15:51:03.546Z,56.59
2023-04-01T15:53:31.245Z,56.73
2023-04-01T15:56:20.252Z,57.02
2023-04-01T15:59:08.876Z,57.47
2023-04-01T16:02:11.427Z,57.68
2023-04-01T16:04:59.033Z,57.88
2023-04-01T16:08:00.272Z,59.00
2023-04-01T16:10:45.683Z,60.07
2023-04-01T16:13:31.338Z,60.38
2023-04-01T16:16:24.830Z,60.87
2023-04-01T16:19:14.162Z,61.87
2023-04-01T16:22:05.774Z,62.76
2023-04-01T16:24:38.904Z,62.71
2023-04-01T16:27:24.378Z,63.47
2023-04-01T16:30:23.565Z,64.28
2023-04-01T16:32:57.667Z,64.49
2023-04-01T16:35:27.370Z,64.70
2023-04-01T16:38:17.277Z,65.20
2023-04-01T16:40:53.094Z,65.58
2023-04-01T16:43:46.627Z,65.49
2023-04-01T16:46:26.814Z,66.13
2023-04-01T16:49:11.925Z,66.67
2023-04-01T16:51:49.104Z,66.78
2023-04-01T16:54:21.746Z,66.71
2023-04-01T16:56:55.845Z,67.12
2023-04-01T16:59:27.548Z,67.34
2023-04-01T17:01:57.782Z,67.23
2023-04-01T17:04:35.429Z,67.42
2023-04-01T17:07:19.641Z,68.01
2023-04-01T17:10:11.592Z,67.74
2023-04-01T17:13:03.020Z,68.28
2023-04-01T17:15:36.454Z,68.47
2023-04-01T17:18:09.799Z,68.48
2023-04-01T17:20:46.471Z,68.43
2023-04-01T17:23:28.971Z,68.66
2023-04-01T17:26:16.098Z,69.21
2023-04-01T17:28:51.446Z,69.02
2023-04-01T17:31:42.753Z,69.30
2023-04-01T17:34:16.032Z,69.87
2023-04-01T17:37:10.039Z,69.75
2023-04-01T17:40:04.930Z,69.61
2023-04-01T17:42:51.095Z,69.97
2023-04-01T17:45:29.721Z,70.27
2023-04-01T17:48:09.076Z,69.81
2023-04-01T17:51:07.664Z,69.88
2023-04-01T17:53:55.836Z,70.30
2023-04-01T17:56:38.196Z,69.92
2023-04-01T17:59:20.629Z,69.84
2023-04-01T18:01:54.621Z,70.28
2023-04-01T18:04:43.328Z,70.10
2023-04-01T18:07:53.525Z,70.13
2023-04-01T18:10:38.942Z,70.74
2023-04-01T18:13:23.868Z,70.39
2023-04-01T18:16:15.734Z,70.62
2023-04-01T18:18:54.016Z,71.24
2023-04-01T18:21:48.460Z,71.17
2023-04-01T18:24:27.277Z,71.39
2023-04-01T18:27:02.075Z,72.06
2023-04-01T18:29:48.272Z,71.97
2023-04-01T18:32:18.720Z,72.06
2023-04-01T18:34:50.731Z,72.89
2023-04-01T18:37:21.325Z,73.17
2023-04-01T18:40:03.465Z,73.09
2023-04-01T18:43:19.185Z,73.48
2023-04-01T18:45:57.321Z,73.67
2023-04-01T18:48:34.569Z,73.75
2023-04-01T18:51:39.433Z,74.47
2023-04-01T18:54:26.578Z,74.54
2023-04-01T18:57:01.349Z,74.59
2023-04-01T18:59:52.442Z,75.28
2023-04-01T19:02:57.560Z,75.22
2023-04-01T19:05:31.810Z,74.80
2023-04-01T19:08:31.876Z,75.70
2023-04-01T19:11:11.522Z,75.66
2023-04-01T19:13:55.410Z,75.73
2023-04-01T19:16:37.587Z,76.12
2023-04-01T19:19:22.275Z,76.19
2023-04-01T19:21:53.332Z,75.99
2023-04-01T19:24:34.643Z,75.72
2023-04-01T19:27:03.170Z,76.26
2023-04-01T19:29:58.837Z,76.27
2023-04-01T19:33:07.507Z,76.12
2023-04-01T19:35:46.372Z,76.46
2023-04-01T19:38:36.046Z,76.56
2023-04-01T19:41:13.627Z,76.58
2023-04-01T19:44:21.014Z,76.82
2023-04-01T19:46:54.446Z,76.06
2023-04-01T19:50:03.659Z,75.86
2023-04-01T19:52:40.820Z,76.26
2023-04-01T19:55:39.878Z,76.04
2023-04-01T19:58:26.963Z,75.89
2023-04-01T20:00:55.354Z,76.54
2023-04-01T20:03:31.639Z,76.25
2023-04-01T20:06:25.903Z,75.83
2023-04-01T20:09:13.098Z,75.86
2023-04-01T20:11:50.154Z,76.54
2023-04-01T20:14:41.738Z,76.09
2023-04-01T20:17:27.026Z,75.90
2023-04-01T20:20:08.847Z,76.03
2023-04-01T20:22:45.488Z,76.49
2023-04-01T20:25:26.839Z,76.34
2023-04-01T20:28:05.761Z,76.28
2023-04-01T20:30:41.464Z,76.36
2023-04-01T20:33:21.303Z,75.94
2023-04-01T20:36:25.630Z,76.22
2023-04-01T20:39:16.933Z,76.72
2023-04-01T20:42:02.234Z,76.42
2023-04-01T20:44:35.152Z,76.48
2023-04-01T20:47:35.842Z,76.91
2023-04-01T20:50:36.688Z,76.50
2023-04-01T20:53:28.038Z,76.52
2023-04-01T20:56:00.777Z,76.78
2023-04-01T20:58:52.122Z,76.53
2023-04-01T21:02:02.444Z,76.55
2023-04-01T21:04:53.867Z,77.01
2023-04-01T21:07:43.044Z,77.06
2023-04-01T21:10:10.330Z,77.09
2023-04-01T21:13:00.946Z,77.33
2023-04-01T21:15:27.570Z,77.15
2023-04-01T21:18:03.029Z,77.12
2023-04-01T21:20:37.188Z,77.58
2023-04-01T21:23:36.293Z,77.22
2023-04-01T21:26:11.949Z,77.14
2023-04-01T21:29:07.002Z,77.48
2023-04-01T21:31:50.019Z,77.30
2023-04-01T21:34:28.979Z,77.01
2023-04-01T21:37:10.004Z,77.55
2023-04-01T21:39:43.533Z,77.62
2023-04-01T21:42:39.503Z,77.36
2023-04-01T21:45:33.215Z,77.43
2023-04-01T21:48:27.915Z,77.72
2023-04-01T21:51:10.195Z,77.25
2023-04-01T21:53:42.800Z,77.30
2023-04-01T21:56:18.207Z,77.57
2023-04-01T21:59:08.336Z,77.36
2023-04-01T22:01:35.034Z,77.51
2023-04-01T22:04:32.621Z,78.00
2023-04-01T22:07:02.130Z,77.67
2023-04-01T22:10:07.815Z,77.57
2023-04-01T22:12:55.347Z,77.88
2023-04-01T22:15:46.748Z,77.81
2023-04-01T22:18:40.766Z,77.52
2023-04-01T22:21:27.530Z,77.70
2023-04-01T22:24:15.763Z,77.80
2023-04-01T22:26:52.079Z,77.47
2023-04-01T22:29:44.274Z,77.60
2023-04-01T22:32:19.978Z,77.83
2023-04-01T22:34:56.182Z,77.62
2023-04-01T22:37:32.566Z,77.61
2023-04-01T22:40:25.850Z,77.77
2023-04-01T22:43:13.015Z,77.56
2023-04-01T22:46:31.282Z,77.38
2023-04-01T22:49:03.799Z,77.70
2023-04-01T22:51:45.079Z,77.63
2023-04-01T22:54:18.245Z,77.56
2023-04-01T22:57:12.851Z,77.75
2023-04-01T22:59:52.894Z,77.51
2023-04-01T23:02:36.839Z,77.36
2023-04-01T23:05:05.597Z,77.62
2023-04-01T23:08:17.265Z,77.67
2023-04-01T23:10:47.381Z,77.63
2023-04-01T23:13:18.782Z,78.04
2023-04-01T23:15:45.444Z,78.01
2023-04-01T23:18:37.307Z,78.03
2023-04-01T23:21:12.346Z,78.14
2023-04-01T23:24:01.453Z,78.62
2023-04-01T23:26:46.512Z,78.43
2023-04-01T23:29:15.000Z,78.15
2023-04-01T23:31:45.685Z,78.49
2023-04-01T23:34:12.489Z,78.55
2023-04-01T23:36:41.656Z,78.23
2023-04-01T23:39:39.324Z,78.16
2023-04-01T23:42:16.092Z,78.31
2023-04-01T23:44:43.704Z,78.13
2023-04-01T23:47:14.996Z,78.18
2023-04-01T23:49:51.282Z,78.14
2023-04-01T23:52:27.408Z,78.32
2023-04-01T23:55:09.146Z,78.29
2023-04-01T23:57:36.689Z,78.32
